Flight Track Log - Related Links

Times and Time Zones

All times are in EDT time to prevent confusion due to time zone crossing. See the SWA303 flight status page for this flight to view local times or setup timezone preferences in your user account.


Time Position Orientation Groundspeed Altitude Reporting Facility
EDT Latitude Longitude Course Direction KTS MPH feet Rate Location/Type
Tue 02:36:03 PM 39.8833 -104.5500 90° East 213 245 7,300  Level Denver TRACON
Tue 02:37:03 PM 39.8667 -104.4667 105° East 274 315 9,400 2,238 Climbing Denver TRACON
Tue 02:38:09 PM 39.8833 -104.3500 79° East 327 376 12,000 2,835 Climbing Denver TRACON
Tue 02:39:10 PM 39.8781 -104.2169 93° East 351 404 15,400 2,829 Climbing Denver Center
Tue 02:40:12 PM 39.8794 -104.0789 89° East 380 437 17,800 2,565 Climbing Denver Center
Tue 02:41:00 PM 39.8833 -103.6605 90° East  Level FlightAware Approximate
Tue 02:41:14 PM 39.8803 -103.9208 90° East 407 468 20,700  Level Denver Center
Tue 02:42:16 PM 39.8822 -103.7647 89° East 429 494 23,200 2,226 Climbing Denver Center
Tue 02:43:18 PM 39.8986 -103.6078 82° East 440 506 25,300 1,935 Climbing Denver Center
Tue 02:44:20 PM 39.9172 -103.4372 82° East 472 543 27,200 1,659 Climbing Denver Center
Tue 02:45:21 PM 39.9375 -103.2589 82° East 491 565 28,700 1,463 Climbing Denver Center
Tue 02:46:23 PM 39.9581 -103.0717 82° East 515 593 30,200 1,452 Climbing Denver Center
Tue 02:47:25 PM 39.9825 -102.8450 82° East 537 618 31,700 1,403 Climbing Denver Center
Tue 02:48:27 PM 40.0014 -102.6636 82° East 550 633 33,100 1,790 Climbing Denver Center
Tue 02:49:29 PM 40.0114 -102.4458 86° East 539 620 35,400 1,561 Climbing Denver Center
Tue 02:50:30 PM 40.0214 -102.2903 85° East 539 620 36,300 1,258 Climbing Denver Center
Tue 02:51:33 PM 40.0347 -102.0417 86° East 538 619 38,000 1,104 Climbing Denver Center
Tue 02:52:35 PM 40.0456 -101.8533 86° East 545 627 38,600 488 Climbing Denver Center
Tue 02:53:36 PM 40.0572 -101.6339 86° East 547 629 39,000 178 Climbing Denver Center
Tue 02:54:50 PM 40.0656 -101.4433 87° East 551 634 39,000  Level Denver Center
Tue 02:55:52 PM 40.0772 -101.1917 86° East 548 631 39,000  Level Denver Center
Tue 02:56:54 PM 40.0861 -101.0033 86° East 546 628 39,000  Level Denver Center
Tue 02:57:56 PM 40.0956 -100.7853 87° East 542 624 39,000  Level Denver Center
Tue 02:58:58 PM 40.1042 -100.5972 87° East 545 627 39,000  Level Denver Center
Tue 03:00:00 PM 40.1125 -100.3792 87° East 542 624 39,000  Level Denver Center
Tue 03:01:02 PM 40.1194 -100.1933 87° East 539 620 39,000  Level Denver Center
Tue 03:02:04 PM 40.1272 -99.9739 87° East 543 625 39,000  Level Denver Center
Tue 03:03:06 PM 40.1336 -99.7947 87° East 544 626 39,000  Level Denver Center
Tue 03:04:07 PM 40.1406 -99.5989 87° East 542 624 39,000  Level Denver Center
Tue 03:05:09 PM 40.1475 -99.3628 88° East 542 624 39,000  Level Denver Center
Tue 03:06:11 PM 40.1533 -99.1658 88° East 543 625 39,000  Level Denver Center
Tue 03:07:13 PM 40.1592 -98.9694 88° East 542 624 39,000  Level Denver Center
Tue 03:08:15 PM 40.1636 -98.7719 88° East 544 626 39,000  Level Denver Center
Tue 03:09:17 PM 40.1678 -98.5756 88° East 543 625 39,000  Level Denver Center
Tue 03:10:11 PM 40.1725 -98.4194 88° East 543 625 39,000  Level Minneapolis Center
Tue 03:11:13 PM 40.1769 -98.1839 89° East 542 624 39,000  Level Minneapolis Center
Tue 03:12:15 PM 40.1814 -97.9881 88° East 541 623 39,000  Level Minneapolis Center
Tue 03:13:16 PM 40.1842 -97.7911 89° East 543 625 39,000  Level Minneapolis Center
Tue 03:14:18 PM 40.1869 -97.5939 89° East 544 626 39,000  Level Minneapolis Center
Tue 03:15:20 PM 40.1908 -97.3589 89° East 540 621 39,000  Level Minneapolis Center
Tue 03:16:21 PM 40.1933 -97.1714 89° East 541 623 39,000  Level Minneapolis Center
Tue 03:17:23 PM 40.1956 -96.9786 89° East 537 618 39,000  Level Minneapolis Center
Tue 03:18:25 PM 40.1967 -96.7847 90° East 535 616 39,000  Level Minneapolis Center
Tue 03:19:26 PM 40.1983 -96.5894 89° East 538 619 39,000  Level Minneapolis Center
Tue 03:20:28 PM 40.1994 -96.3961 90° East 536 617 39,000  Level Minneapolis Center
Tue 03:21:30 PM 40.2000 -96.1661 90° East 532 612 39,000  Level Minneapolis Center
Tue 03:22:31 PM 40.1992 -95.9744 90° East 531 611 39,000  Level Minneapolis Center
Tue 03:23:33 PM 40.1986 -95.7806 90° East 534 615 39,000  Level Minneapolis Center
Tue 03:24:35 PM 40.1975 -95.5875 90° East 534 615 39,000  Level Minneapolis Center
Tue 03:25:36 PM 40.1967 -95.3956 90° East 531 611 39,000  Level Minneapolis Center
Tue 03:26:38 PM 40.1933 -95.2008 91° East 535 616 39,000  Level Minneapolis Center
Tue 03:27:40 PM 40.1922 -95.0053 90° East 539 620 39,000  Level Minneapolis Center
Tue 03:28:42 PM 40.1881 -94.7717 91° East 539 620 39,000  Level Minneapolis Center
Tue 03:29:43 PM 40.1856 -94.5756 91° East 540 621 39,000  Level Minneapolis Center
Tue 03:30:45 PM 40.1825 -94.4014 91° East 540 621 39,000  Level Minneapolis Center
Tue 03:31:26 PM 40.1775 -94.2647 93° East 540 621 39,000  Level Kansas City Center
Tue 03:32:27 PM 40.1719 -94.0511 92° East 541 623 39,000  Level Kansas City Center
Tue 03:33:27 PM 40.1667 -93.8569 92° East 540 621 39,000  Level Kansas City Center
Tue 03:34:30 PM 40.1622 -93.6647 92° East 536 617 39,000  Level Kansas City Center
Tue 03:35:31 PM 40.1578 -93.4733 92° East 532 612 39,000  Level Kansas City Center
Tue 03:36:32 PM 40.1556 -93.2836 91° East 529 609 39,000  Level Kansas City Center
Tue 03:37:33 PM 40.1500 -93.0917 92° East 533 613 39,000  Level Kansas City Center
Tue 03:38:35 PM 40.1425 -92.8717 92° East 531 611 39,000  Level Kansas City Center
Tue 03:39:38 PM 40.1361 -92.6850 93° East 533 613 39,000  Level Kansas City Center
Tue 03:40:39 PM 40.1228 -92.4719 95° East 526 605 39,000  Level Kansas City Center
Tue 03:41:41 PM 40.1092 -92.2978 96° East 535 616 39,000  Level Kansas City Center
Tue 03:42:42 PM 40.0875 -92.0692 97° East 537 618 39,000  Level Kansas City Center
Tue 03:43:43 PM 40.0703 -91.8783 97° East 534 615 39,000  Level Kansas City Center
Tue 03:44:46 PM 40.0511 -91.6883 97° East 534 615 39,000 629 Level Kansas City Center
Tue 03:45:47 PM 40.0336 -91.4997 97° East 531 611 40,300 878 Climbing Kansas City Center
Tue 03:46:49 PM 40.0150 -91.3169 98° East 518 596 40,800 339 Climbing Kansas City Center
Tue 03:47:51 PM 39.9961 -91.1300 97° East 520 598 41,000 98 Climbing Kansas City Center
Tue 03:48:52 PM 39.9742 -90.9183 98° East 527 606 41,000  Level Kansas City Center
Tue 03:49:53 PM 39.9553 -90.7294 97° East 528 608 41,000  Level Kansas City Center
Tue 03:50:56 PM 39.9344 -90.5397 98° East 530 610 41,000  Level Kansas City Center
Tue 03:51:57 PM 39.9150 -90.3519 98° East 528 608 41,000  Level Kansas City Center
Tue 03:52:58 PM 39.8903 -90.1289 98° East 524 603 41,000  Level Kansas City Center
Tue 03:53:59 PM 39.8694 -89.9422 98° East 523 602 41,000  Level Kansas City Center
Tue 03:55:02 PM 39.8483 -89.7583 98° East 520 598 41,000  Level Kansas City Center
Tue 03:56:03 PM 39.8389 -89.5714 94° East 521 600 41,000  Level Kansas City Center
Tue 03:57:04 PM 39.8411 -89.3858 89° East 519 597 41,000  Level Kansas City Center
Tue 03:58:07 PM 39.8419 -89.1994 90° East 518 596 41,000  Level Kansas City Center
Tue 03:59:09 PM 39.8419 -88.9781 90° East 516 594 41,000  Level Kansas City Center
Tue 04:00:12 PM 39.8428 -88.7936 90° East 514 592 41,000  Level Kansas City Center
Tue 04:01:14 PM 39.8419 -88.6092 90° East 513 590 41,000  Level Kansas City Center
Tue 04:02:17 PM 39.8444 -88.4250 89° East 510 587 41,000  Level Kansas City Center
Tue 04:03:18 PM 39.8425 -88.2414 91° East 510 587 41,000  Level Kansas City Center
Tue 04:04:18 PM 39.8403 -88.0217 91° East 508 585 41,000  Level Kansas City Center
Tue 04:04:39 PM 39.8375 -87.9697 94° East 512 589 41,000  Level Indianapolis Center
Tue 04:05:41 PM 39.8361 -87.7808 90° East 516 594 41,000  Level Indianapolis Center
Tue 04:06:43 PM 39.8342 -87.5911 91° East 522 601 41,000  Level Indianapolis Center
Tue 04:07:45 PM 39.8336 -87.4022 90° East 519 597 41,000  Level Indianapolis Center
Tue 04:08:47 PM 39.8294 -87.1811 91° East 521 600 41,000  Level Indianapolis Center
Tue 04:09:49 PM 39.8275 -86.9906 91° East 524 603 41,000  Level Indianapolis Center
Tue 04:10:51 PM 39.8233 -86.7989 92° East 525 604 41,000  Level Indianapolis Center
Tue 04:11:53 PM 39.8192 -86.6075 92° East 525 604 41,000  Level Indianapolis Center
Tue 04:12:55 PM 39.8156 -86.4175 91° East 521 600 41,000  Level Indianapolis Center
Tue 04:13:57 PM 39.8119 -86.2419 91° East 522 601 41,000  Level Indianapolis Center
Tue 04:14:59 PM 39.8089 -86.0267 91° East 522 601 41,000  Level Indianapolis Center
Tue 04:16:01 PM 39.8058 -85.8361 91° East 523 602 41,000  Level Indianapolis Center
Tue 04:17:03 PM 39.8206 -85.6486 84° East 521 600 41,000  Level Indianapolis Center
Tue 04:18:06 PM 39.8314 -85.4589 86° East 523 602 41,000  Level Indianapolis Center
Tue 04:19:08 PM 39.8439 -85.2378 86° East 524 603 41,000  Level Indianapolis Center
Tue 04:20:10 PM 39.8542 -85.0467 86° East 525 604 41,000  Level Indianapolis Center
Tue 04:21:12 PM 39.8656 -84.8444 86° East 526 605 41,000  Level Indianapolis Center
Tue 04:22:14 PM 39.8764 -84.6539 86° East 525 604 41,000  Level Indianapolis Center
Tue 04:23:16 PM 39.8878 -84.4636 85° East 525 604 41,000  Level Indianapolis Center
Tue 04:24:18 PM 39.8956 -84.2725 87° East 522 601 41,000  Level Indianapolis Center
Tue 04:25:20 PM 39.9042 -84.0842 87° East 519 597 41,000  Level Indianapolis Center
Tue 04:27:24 PM 39.9222 -83.7083 86° East 512 589 41,000 -129 Level Indianapolis Center
Tue 04:28:26 PM 39.9322 -83.5058 86° East 512 589 40,600 -677 Descending Indianapolis Center
Tue 04:29:28 PM 39.9400 -83.3239 87° East 515 593 39,600 -968 Descending Indianapolis Center
Tue 04:30:30 PM 39.9483 -83.1344 87° East 516 594 38,600 -968 Descending Indianapolis Center
Tue 04:31:32 PM 39.9553 -82.9453 87° East 517 595 37,600 -774 Descending Indianapolis Center
Tue 04:32:34 PM 39.9636 -82.7239 87° East 519 597 37,000 -290 Descending Indianapolis Center
Tue 04:33:36 PM 39.9700 -82.5353 87° East 519 597 37,000  Level Indianapolis Center
Tue 04:34:38 PM 39.9764 -82.3458 87° East 518 596 37,000  Level Indianapolis Center
Tue 04:35:40 PM 39.9819 -82.1553 88° East 521 600 37,000  Level Indianapolis Center
Tue 04:36:42 PM 39.9875 -81.9644 88° East 522 601 37,000  Level Indianapolis Center
Tue 04:37:44 PM 39.9933 -81.7700 88° East 524 603 37,000  Level Indianapolis Center
Tue 04:38:47 PM 39.9989 -81.5797 88° East 523 602 37,000  Level Indianapolis Center
Tue 04:39:49 PM 39.9903 -81.3575 93° East 527 606 37,000  Level Indianapolis Center
Tue 04:40:51 PM 39.9450 -81.1697 107° East 533 613 37,000 -198 Level Indianapolis Center
Tue 04:41:50 PM 39.8933 -80.9917 111° Southeast 523 602 36,600 -706 Descending Cleveland Center
Tue 04:42:50 PM 39.8417 -80.8103 110° East 523 602 35,600 -950 Descending Cleveland Center
Tue 04:43:50 PM 39.7900 -80.6289 110° East 534 615 34,700 -1,100 Descending Cleveland Center
Tue 04:44:50 PM 39.7356 -80.4481 111° Southeast 534 615 33,400 -850 Descending Cleveland Center
Tue 04:45:50 PM 39.6811 -80.2675 111° Southeast 529 609 33,000 -200 Descending Cleveland Center
Tue 04:46:50 PM 39.6283 -80.0872 111° Southeast 529 609 33,000 -310 Level Cleveland Center
Tue 04:47:46 PM 39.5817 -79.9267 111° Southeast 532 612 32,400 -1,707 Descending Washington Center
Tue 04:48:46 PM 39.5400 -79.7467 107° East 527 606 29,700 -2,500 Descending Washington Center
Tue 04:49:46 PM 39.5081 -79.5781 104° East 512 589 27,400 -1,350 Descending Washington Center
Tue 04:50:46 PM 39.4781 -79.4122 103° East 482 555 27,000 -950 Descending Washington Center
Tue 04:51:46 PM 39.4569 -79.2847 102° East 467 537 25,500 -1,900 Descending Washington Center
Tue 04:52:46 PM 39.4267 -79.1167 103° East 452 520 23,200 -2,150 Descending Washington Center
Tue 04:53:46 PM 39.3994 -78.9756 104° East 423 487 21,200 -1,950 Descending Washington Center
Tue 04:54:46 PM 39.3739 -78.8403 104° East 399 459 19,300 -1,700 Descending Washington Center
Tue 04:55:46 PM 39.3506 -78.7078 103° East 387 445 17,800 -1,950 Descending Washington Center
Tue 04:56:46 PM 39.3267 -78.5806 104° East 374 430 15,400 -2,150 Descending Washington Center
Tue 04:57:46 PM 39.3025 -78.4508 103° East 374 430 13,500 -1,950 Descending Washington Center
Tue 04:58:46 PM 39.2678 -78.3314 111° Southeast 364 419 11,500 -1,300 Descending Washington Center
Tue 04:59:46 PM 39.2158 -78.2331 124° Southeast 346 398 10,900 -1,000 Descending Washington Center
Tue 05:00:46 PM 39.1678 -78.1403 124° Southeast 327 376 9,500 -1,500 Descending Washington Center
Tue 05:01:46 PM 39.1197 -78.0503 125° Southeast 315 362 7,900 -1,250 Descending Washington Center
Tue 05:02:46 PM 39.0733 -77.9658 125° Southeast 296 341 7,000 -450 Descending Washington Center
Tue 05:03:46 PM 39.0272 -77.8736 123° Southeast 291 335 7,000  Level Washington Center
Tue 05:04:46 PM 38.9850 -77.7947 125° Southeast 286 329 7,000 -500 Level Washington Center
Tue 05:05:46 PM 38.9594 -77.7006 109° East 273 314 6,000 -569 Descending Washington Center
Tue 05:06:42 PM 38.9333 -77.6167 112° Southeast 281 323 5,900  Descending Potomac TRACON
Tue 05:07:42 PM 38.8667 -77.5833 159° South 247 284 6,000 -450 Climbing Potomac TRACON
Tue 05:08:42 PM 38.8167 -77.5333 142° Southeast 246 283 5,000 -1,339 Descending Potomac TRACON
Tue 05:09:43 PM 38.8167 -77.4667 90° East 212 244 3,300 -1,488 Descending Potomac TRACON
Tue 05:10:43 PM 38.8500 -77.4667 360° North 153 176 2,000 -1,050 Descending Potomac TRACON
Tue 05:11:43 PM 38.9000 -77.4667 360° North 139 160 1,200 -800 Descending Potomac TRACON
Tue 05:13:00 PM 38.9333 -77.4500 165° South  Level FlightAware Approximate
Tue 05:20:00 PM 38.9474 -77.4599 165° South  Level Estimated
Tue 05:21:00 PM 38.9474 -77.4599 165° South  Level Estimated
Tue 05:22:00 PM 38.9474 -77.4599 165° South  Level Estimated
Tue 05:23:00 PM 38.9474 -77.4599 165° South  Level Estimated

Login

Don't have an account? Register now (free) for customized features, flight alerts, and more!